createdAt,value
2018-09-18T00:01:50.626Z,13.88
2018-09-18T00:06:50.158Z,13.88
2018-09-18T00:11:50.365Z,14.08
2018-09-18T00:16:50.653Z,14.18
2018-09-18T00:21:50.155Z,14.08
2018-09-18T00:26:50.684Z,13.78
2018-09-18T00:31:49.987Z,13.68
2018-09-18T00:36:50.529Z,13.68
2018-09-18T00:41:50.656Z,13.68
2018-09-18T00:46:49.945Z,13.68
2018-09-18T00:51:50.433Z,13.78
2018-09-18T00:56:50.043Z,13.98
2018-09-18T01:01:50.284Z,14.28
2018-09-18T01:06:50.852Z,14.28
2018-09-18T01:11:50.058Z,14.38
2018-09-18T01:16:50.322Z,13.88
2018-09-18T01:21:50.771Z,13.68
2018-09-18T01:26:50.368Z,14.08
2018-09-18T01:31:50.684Z,13.78
2018-09-18T01:36:50.159Z,13.78
2018-09-18T01:41:50.353Z,13.78
2018-09-18T01:46:50.653Z,14.08
2018-09-18T01:51:50.146Z,13.98
2018-09-18T01:56:50.714Z,13.68
2018-09-18T02:01:50.036Z,13.78
2018-09-18T02:06:50.535Z,13.78
2018-09-18T02:11:50.745Z,13.38
2018-09-18T02:16:50.029Z,13.78
2018-09-18T02:21:50.509Z,13.48
2018-09-18T02:26:50.085Z,13.58
2018-09-18T02:31:50.374Z,13.68
2018-09-18T02:36:50.836Z,13.58
2018-09-18T02:41:50.044Z,13.68
2018-09-18T02:46:50.337Z,13.68
2018-09-18T02:51:50.820Z,13.78
2018-09-18T02:56:50.404Z,13.78
2018-09-18T03:01:50.689Z,13.78
2018-09-18T03:06:50.166Z,13.88
2018-09-18T03:11:50.384Z,13.98
2018-09-18T03:16:50.672Z,13.88
2018-09-18T03:21:50.120Z,13.98
2018-09-18T03:26:50.732Z,14.18
2018-09-18T03:31:50.072Z,14.18
2018-09-18T03:36:50.523Z,14.18
2018-09-18T03:41:50.747Z,14.48
2018-09-18T03:46:50.047Z,14.28
2018-09-18T03:51:50.497Z,14.38
2018-09-18T03:56:50.081Z,14.78
2018-09-18T04:01:50.350Z,14.68
2018-09-18T04:06:50.858Z,14.78
2018-09-18T04:11:50.061Z,15.18
2018-09-18T04:16:50.392Z,15.08
2018-09-18T04:21:50.830Z,14.78
2018-09-18T04:26:50.487Z,14.78
2018-09-18T04:31:50.700Z,14.88
2018-09-18T04:36:50.161Z,14.78
2018-09-18T04:41:50.343Z,14.68
2018-09-18T04:46:50.650Z,14.58
2018-09-18T04:51:50.112Z,14.68
2018-09-18T04:56:50.725Z,14.48
2018-09-18T05:01:50.036Z,14.58
2018-09-18T05:06:50.526Z,14.48
2018-09-18T05:11:50.310Z,14.48
2018-09-18T05:16:50.602Z,14.48
2018-09-18T05:21:50.054Z,14.38
2018-09-18T05:26:50.635Z,14.38
2018-09-18T05:31:50.006Z,14.48
2018-09-18T05:36:50.428Z,14.48
2018-09-18T05:41:50.676Z,14.48
2018-09-18T05:46:49.952Z,14.58
2018-09-18T05:51:50.344Z,14.48
2018-09-18T05:56:49.960Z,14.68
2018-09-18T06:01:50.319Z,14.68
2018-09-18T06:06:50.723Z,14.68
2018-09-18T06:11:49.960Z,14.78
2018-09-18T06:16:50.254Z,14.88
2018-09-18T06:21:50.737Z,14.98
2018-09-18T06:26:50.311Z,15.08
2018-09-18T06:31:50.540Z,15.48
2018-09-18T06:36:51.119Z,15.48
2018-09-18T06:41:50.234Z,15.88
2018-09-18T06:46:50.534Z,16.40
2018-09-18T06:51:49.990Z,16.48
2018-09-18T06:56:50.543Z,16.96
2018-09-18T07:01:49.873Z,17.12
2018-09-18T07:06:50.363Z,17.20
2018-09-18T07:11:50.530Z,17.45
2018-09-18T07:16:49.852Z,17.53
2018-09-18T07:21:50.320Z,17.65
2018-09-18T07:26:49.863Z,17.80
2018-09-18T07:31:50.179Z,18.38
2018-09-18T07:36:50.647Z,18.43
2018-09-18T07:41:49.876Z,18.66
2018-09-18T07:46:50.199Z,18.64
2018-09-18T07:51:50.607Z,18.86
2018-09-18T07:56:50.229Z,19.10
2018-09-18T08:01:50.506Z,19.35
2018-09-18T08:06:50.061Z,19.56
2018-09-18T08:11:50.254Z,19.67
2018-09-18T08:16:50.596Z,19.87
2018-09-18T08:21:50.077Z,20.03
2018-09-18T08:26:50.597Z,20.41
2018-09-18T08:31:49.891Z,20.71
2018-09-18T08:36:50.324Z,20.73
2018-09-18T08:41:50.551Z,21.16
2018-09-18T08:46:49.950Z,21.24
2018-09-18T08:51:50.771Z,21.56
2018-09-18T08:56:49.982Z,21.67
2018-09-18T09:01:50.290Z,21.76
2018-09-18T09:06:50.809Z,21.94
2018-09-18T09:11:49.978Z,22.17
2018-09-18T09:16:50.213Z,22.43
2018-09-18T09:21:51.230Z,22.26
2018-09-18T09:26:50.583Z,22.14
2018-09-18T09:31:50.537Z,22.24
2018-09-18T09:36:50.251Z,22.49
2018-09-18T09:41:50.234Z,22.67
2018-09-18T09:46:50.535Z,22.86
2018-09-18T09:51:50.039Z,23.07
2018-09-18T09:56:50.765Z,22.91
2018-09-18T10:01:49.923Z,23.34
2018-09-18T10:06:50.389Z,23.45
2018-09-18T10:11:50.623Z,23.59
2018-09-18T10:16:50.388Z,24.03
2018-09-18T10:21:50.341Z,24.45
2018-09-18T10:26:55.223Z,24.84
2018-09-18T10:31:50.267Z,24.79
2018-09-18T10:36:50.763Z,24.99
2018-09-18T10:41:50.159Z,25.38
2018-09-18T10:46:50.652Z,25.66
2018-09-18T10:51:50.670Z,25.64
2018-09-18T10:56:50.323Z,25.57
2018-09-18T11:01:50.814Z,25.52
2018-09-18T11:06:50.159Z,25.57
2018-09-18T11:11:50.773Z,25.80
2018-09-18T11:16:50.977Z,25.86
2018-09-18T11:21:50.544Z,25.97
2018-09-18T11:26:50.638Z,26.18
2018-09-18T11:31:49.961Z,26.02
2018-09-18T11:36:50.367Z,25.88
2018-09-18T11:41:50.580Z,25.95
2018-09-18T11:46:50.420Z,26.07
2018-09-18T11:51:50.373Z,25.93
2018-09-18T11:56:50.613Z,25.70
2018-09-18T12:01:50.202Z,25.88
2018-09-18T12:06:50.823Z,25.74
2018-09-18T12:11:49.979Z,25.84
2018-09-18T12:16:50.378Z,25.80
2018-09-18T12:21:50.720Z,25.59
2018-09-18T12:26:50.298Z,25.30
2018-09-18T12:31:50.596Z,25.28
2018-09-18T12:36:50.078Z,25.12
2018-09-18T12:41:50.645Z,25.24
2018-09-18T12:46:50.551Z,25.50
2018-09-18T12:51:50.038Z,25.45
2018-09-18T12:56:50.947Z,25.81
2018-09-18T13:01:49.901Z,25.09
2018-09-18T13:06:50.807Z,25.08
2018-09-18T13:11:50.598Z,24.39
2018-09-18T13:16:49.906Z,24.42
2018-09-18T13:21:50.357Z,23.77
2018-09-18T13:26:49.902Z,23.70
2018-09-18T13:31:50.238Z,23.91
2018-09-18T13:36:50.655Z,23.72
2018-09-18T13:41:49.886Z,23.63
2018-09-18T13:46:50.208Z,23.57
2018-09-18T13:51:50.945Z,23.29
2018-09-18T13:56:50.829Z,22.96
2018-09-18T14:01:51.801Z,22.49
2018-09-18T14:06:50.446Z,22.94
2018-09-18T14:11:50.246Z,22.66
2018-09-18T14:16:50.919Z,22.64
2018-09-18T14:21:49.969Z,22.70
2018-09-18T14:26:51.164Z,22.84
2018-09-18T14:31:49.867Z,22.26
2018-09-18T14:36:50.342Z,22.40
2018-09-18T14:41:50.922Z,22.31
2018-09-18T14:46:50.621Z,22.63
2018-09-18T14:51:50.275Z,22.48
2018-09-18T14:56:49.869Z,22.18
2018-09-18T15:01:50.129Z,22.22
2018-09-18T15:06:50.775Z,22.13
2018-09-18T15:11:49.856Z,22.28
2018-09-18T15:16:50.143Z,22.08
2018-09-18T15:21:50.729Z,21.96
2018-09-18T15:26:50.157Z,21.77
2018-09-18T15:31:50.490Z,22.12
2018-09-18T15:36:49.916Z,22.39
2018-09-18T15:41:50.125Z,22.17
2018-09-18T15:46:50.406Z,22.32
2018-09-18T15:51:51.175Z,22.25
2018-09-18T15:56:50.472Z,22.17
2018-09-18T16:01:50.808Z,21.92
2018-09-18T16:06:50.272Z,21.88
2018-09-18T16:11:50.473Z,21.78
2018-09-18T16:16:50.999Z,21.60
2018-09-18T16:21:50.205Z,21.53
2018-09-18T16:26:49.817Z,21.48
2018-09-18T16:31:50.096Z,21.22
2018-09-18T16:36:50.785Z,21.27
2018-09-18T16:41:50.773Z,21.37
2018-09-18T16:46:50.390Z,21.30
2018-09-18T16:51:50.515Z,21.29
2018-09-18T16:56:50.150Z,21.37
2018-09-18T17:01:50.396Z,21.50
2018-09-18T17:06:49.960Z,21.57
2018-09-18T17:11:50.224Z,21.58
2018-09-18T17:16:50.456Z,21.34
2018-09-18T17:21:49.964Z,21.39
2018-09-18T17:26:50.499Z,21.47
2018-09-18T17:31:50.873Z,21.40
2018-09-18T17:36:50.248Z,21.16
2018-09-18T17:41:50.495Z,21.32
2018-09-18T17:46:50.836Z,21.41
2018-09-18T17:51:50.259Z,21.47
2018-09-18T17:56:50.003Z,21.28
2018-09-18T18:01:50.138Z,21.21
2018-09-18T18:06:50.717Z,21.16
2018-09-18T18:11:50.124Z,20.84
2018-09-18T18:16:50.186Z,20.87
2018-09-18T18:21:50.592Z,20.74
2018-09-18T18:26:50.271Z,20.86
2018-09-18T18:31:50.552Z,20.62
2018-09-18T18:36:50.053Z,20.49
2018-09-18T18:41:50.151Z,20.52
2018-09-18T18:46:50.678Z,20.47
2018-09-18T18:51:49.939Z,20.46
2018-09-18T18:56:50.703Z,20.48
2018-09-18T19:01:50.763Z,20.32
2018-09-18T19:06:51.501Z,20.36
2018-09-18T19:11:50.489Z,20.32
2018-09-18T19:16:50.795Z,20.23
2018-09-18T19:21:50.280Z,20.02
2018-09-18T19:26:49.875Z,20.17
2018-09-18T19:31:50.149Z,20.00
2018-09-18T19:36:50.584Z,19.97
2018-09-18T19:41:49.831Z,19.85
2018-09-18T19:46:50.103Z,20.05
2018-09-18T19:51:50.667Z,20.05
2018-09-18T19:56:50.144Z,19.99
2018-09-18T20:01:50.457Z,20.11
2018-09-18T20:06:49.939Z,20.08
2018-09-18T20:11:50.177Z,20.30
2018-09-18T20:16:50.609Z,20.14
2018-09-18T20:21:49.928Z,20.01
2018-09-18T20:26:50.534Z,19.93
2018-09-18T20:31:49.841Z,19.94
2018-09-18T20:36:50.278Z,19.99
2018-09-18T20:41:51.013Z,20.10
2018-09-18T20:46:49.816Z,20.10
2018-09-18T20:51:50.276Z,19.89
2018-09-18T20:56:49.863Z,19.75
2018-09-18T21:01:50.146Z,19.75
2018-09-18T21:06:50.669Z,19.93
2018-09-18T21:11:49.906Z,19.93
2018-09-18T21:16:50.164Z,19.93
2018-09-18T21:21:50.659Z,19.93
2018-09-18T21:26:50.232Z,19.93
2018-09-18T21:31:50.508Z,19.54
2018-09-18T21:36:50.160Z,19.60
2018-09-18T21:41:50.215Z,19.30
2018-09-18T21:46:50.505Z,19.28
2018-09-18T21:51:49.980Z,18.99
2018-09-18T21:56:50.595Z,19.24
2018-09-18T22:01:49.824Z,18.78
2018-09-18T22:06:50.543Z,18.51
2018-09-18T22:11:50.564Z,18.61
2018-09-18T22:16:49.873Z,18.83
2018-09-18T22:21:50.301Z,19.19
2018-09-18T22:26:49.890Z,19.13
2018-09-18T22:31:50.171Z,19.13
2018-09-18T22:36:50.617Z,19.13
2018-09-18T22:41:49.798Z,18.68
2018-09-18T22:46:50.212Z,18.60
2018-09-18T22:51:50.548Z,18.31
2018-09-18T22:56:50.166Z,18.61
2018-09-18T23:01:50.461Z,18.41
2018-09-18T23:06:49.965Z,18.23
2018-09-18T23:11:50.193Z,17.82
2018-09-18T23:16:50.440Z,18.22
2018-09-18T23:21:49.923Z,18.26
2018-09-18T23:26:50.505Z,18.41
2018-09-18T23:31:49.793Z,18.10
2018-09-18T23:36:50.256Z,18.44
2018-09-18T23:41:50.517Z,18.39
2018-09-18T23:46:51.165Z,18.26
2018-09-18T23:51:50.242Z,17.97
2018-09-18T23:56:49.797Z,17.88
